Time;durP1;ratioP1;P1;durP2;ratioP2;P2;SDS_P1;SDS_P2;PMS_P1;PMS_P2;Temp;Humidity;BMP_temperature;BMP_pressure;BME280_temperature;BME280_humidity;BME280_pressure;Samples;Min_cycle;Max_cycle;Signal;HPM_P1;HPM_P2
2023/09/19 00:00:30;;;;;;;4.30;1.83;;;19.10;99.90;;;;;;5032225;28;20491;-69
2023/09/19 00:03:00;;;;;;;4.23;1.93;;;19.10;99.90;;;;;;5031878;28;20460;-69
2023/09/19 00:05:28;;;;;;;3.00;2.20;;;19.10;99.90;;;;;;5031702;28;20443;-68
2023/09/19 00:07:58;;;;;;;3.40;1.80;;;19.00;99.90;;;;;;5031785;28;20459;-68
2023/09/19 00:10:26;;;;;;;2.97;2.40;;;19.00;99.90;;;;;;5031951;28;20462;-69
2023/09/19 00:12:56;;;;;;;3.97;2.17;;;19.00;99.90;;;;;;5031894;28;20467;-69
2023/09/19 00:15:29;;;;;;;3.70;2.47;;;19.00;99.90;;;;;;5032352;28;20464;-69
2023/09/19 00:17:56;;;;;;;2.47;1.93;;;19.00;99.90;;;;;;5032011;28;20852;-69
2023/09/19 00:20:24;;;;;;;2.57;2.33;;;19.00;99.90;;;;;;5031652;28;20484;-68
2023/09/19 00:22:53;;;;;;;5.30;2.87;;;19.00;99.90;;;;;;5031797;28;20462;-68
2023/09/19 00:25:20;;;;;;;3.80;2.07;;;18.90;99.90;;;;;;5031922;28;20425;-69
2023/09/19 00:27:49;;;;;;;4.10;2.23;;;18.90;99.90;;;;;;5036957;28;21042;-67
2023/09/19 00:30:19;;;;;;;4.30;2.33;;;18.90;99.90;;;;;;5051340;28;20450;-69
2023/09/19 00:32:49;;;;;;;4.17;2.63;;;18.90;99.90;;;;;;5052034;28;20522;-69
2023/09/19 00:35:16;;;;;;;4.10;2.13;;;18.90;99.90;;;;;;5051860;28;20525;-67
2023/09/19 00:37:44;;;;;;;3.67;2.23;;;18.90;99.90;;;;;;5051339;28;20459;-68
2023/09/19 00:40:12;;;;;;;2.70;2.23;;;18.90;99.90;;;;;;5051338;28;20517;-67
2023/09/19 00:42:40;;;;;;;6.27;2.97;;;18.90;99.90;;;;;;5051534;28;20473;-69
2023/09/19 00:45:11;;;;;;;4.10;2.63;;;18.80;99.90;;;;;;5051006;28;20455;-69
2023/09/19 00:47:39;;;;;;;2.70;2.50;;;18.80;99.90;;;;;;5051212;28;20873;-68
2023/09/19 00:50:10;;;;;;;13.33;2.40;;;18.80;99.90;;;;;;5054196;28;20411;-69
2023/09/19 00:52:39;;;;;;;3.80;1.93;;;18.70;99.90;;;;;;5017212;28;20463;-67
2023/09/19 00:55:08;;;;;;;4.23;2.13;;;18.70;99.90;;;;;;5035421;28;20865;-67
2023/09/19 00:57:38;;;;;;;2.23;1.87;;;18.70;99.90;;;;;;5048940;28;20475;-67
2023/09/19 01:00:07;;;;;;;2.90;2.17;;;18.70;99.90;;;;;;5054986;28;20557;-67
2023/09/19 01:02:35;;;;;;;3.73;2.00;;;18.70;99.90;;;;;;5054415;28;20475;-69
2023/09/19 01:05:04;;;;;;;3.43;1.90;;;18.60;99.90;;;;;;5056004;28;20455;-67
2023/09/19 01:07:34;;;;;;;7.13;2.47;;;18.60;99.90;;;;;;5054689;28;20471;-68
2023/09/19 01:10:05;;;;;;;3.70;2.17;;;18.60;99.90;;;;;;5054336;28;20472;-67
2023/09/19 01:12:42;;;;;;;6.80;2.80;;;18.60;99.90;;;;;;5054366;28;20537;-68
2023/09/19 01:15:20;;;;;;;4.87;2.03;;;18.60;99.90;;;;;;5053790;28;20442;-67
2023/09/19 01:17:56;;;;;;;3.23;1.77;;;18.60;99.90;;;;;;5042374;28;20483;-67
2023/09/19 01:20:32;;;;;;;3.87;2.27;;;18.60;99.90;;;;;;5034390;28;20569;-67
2023/09/19 01:23:12;;;;;;;2.50;1.80;;;18.60;99.90;;;;;;5044750;28;20439;-68
2023/09/19 01:26:09;;;;;;;4.23;2.60;;;18.60;99.90;;;;;;5054172;28;21016;-68
2023/09/19 01:28:58;;;;;;;3.70;2.47;;;18.60;99.90;;;;;;5047533;28;20475;-67
2023/09/19 01:31:31;;;;;;;2.63;2.10;;;18.60;99.90;;;;;;5062564;28;20427;-66
2023/09/19 01:34:00;;;;;;;3.03;2.20;;;18.60;99.90;;;;;;5056693;28;20435;-67
2023/09/19 01:36:30;;;;;;;3.00;2.13;;;18.60;99.90;;;;;;5053848;28;20459;-69
2023/09/19 01:39:00;;;;;;;4.40;2.57;;;18.60;99.90;;;;;;5053721;28;20459;-69
2023/09/19 01:41:40;;;;;;;6.30;2.30;;;18.70;99.90;;;;;;5053098;28;20424;-69
2023/09/19 01:44:15;;;;;;;4.70;2.53;;;18.70;99.90;;;;;;5034048;28;20882;-68
2023/09/19 01:46:47;;;;;;;5.23;2.30;;;18.60;99.90;;;;;;5034024;28;20463;-69
2023/09/19 01:49:26;;;;;;;3.33;2.10;;;18.70;99.90;;;;;;5033869;28;20448;-69
2023/09/19 01:52:04;;;;;;;2.63;2.13;;;18.70;99.90;;;;;;5034353;28;20799;-67
2023/09/19 01:54:38;;;;;;;4.60;2.37;;;18.70;99.90;;;;;;5034033;28;20808;-69
2023/09/19 01:57:11;;;;;;;3.80;2.27;;;18.70;99.90;;;;;;5033779;28;20487;-67
2023/09/19 01:59:46;;;;;;;5.30;2.30;;;18.70;99.90;;;;;;5033446;28;20468;-69
2023/09/19 02:02:17;;;;;;;3.20;2.30;;;18.70;99.90;;;;;;5033658;28;20463;-67
2023/09/19 02:04:44;;;;;;;2.67;2.10;;;18.70;99.90;;;;;;5041153;28;20455;-68
2023/09/19 02:07:16;;;;;;;4.60;2.10;;;18.70;99.90;;;;;;5037909;28;20889;-68
2023/09/19 02:09:43;;;;;;;2.83;2.20;;;18.70;99.90;;;;;;5054093;28;20454;-68
2023/09/19 02:12:13;;;;;;;3.23;1.90;;;18.70;99.90;;;;;;5054089;28;20432;-68
2023/09/19 02:14:40;;;;;;;2.13;1.90;;;18.60;99.90;;;;;;5053724;28;20428;-67
2023/09/19 02:17:11;;;;;;;3.13;2.60;;;18.60;99.90;;;;;;5053446;28;20469;-67
2023/09/19 02:19:40;;;;;;;2.53;1.93;;;18.60;99.90;;;;;;5053528;28;20474;-68
2023/09/19 02:22:10;;;;;;;8.73;2.00;;;18.50;99.90;;;;;;5042193;28;20471;-68
2023/09/19 02:24:38;;;;;;;6.67;2.70;;;18.50;99.90;;;;;;5033659;28;20425;-69
2023/09/19 02:27:05;;;;;;;2.20;2.00;;;18.50;99.90;;;;;;5034827;28;20514;-66
2023/09/19 02:29:34;;;;;;;5.10;2.33;;;18.50;99.90;;;;;;5053263;28;20442;-68
2023/09/19 02:32:01;;;;;;;5.10;2.10;;;18.50;99.90;;;;;;5052879;28;20455;-68
2023/09/19 02:34:29;;;;;;;3.97;2.07;;;18.40;99.90;;;;;;5057181;28;20494;-68
2023/09/19 02:36:58;;;;;;;4.80;2.00;;;18.40;99.90;;;;;;5046893;28;20607;-68
2023/09/19 02:39:25;;;;;;;5.73;2.50;;;18.30;99.90;;;;;;5033213;28;20464;-67
2023/09/19 02:41:52;;;;;;;2.83;1.73;;;18.30;99.90;;;;;;5015130;28;20498;-69
2023/09/19 02:44:19;;;;;;;1.93;1.73;;;18.30;99.90;;;;;;5053101;28;20803;-69
2023/09/19 02:46:48;;;;;;;3.43;1.70;;;18.30;99.90;;;;;;5053259;28;20459;-68
2023/09/19 02:49:15;;;;;;;3.33;1.97;;;18.30;99.90;;;;;;5034354;28;20471;-68
2023/09/19 02:51:42;;;;;;;4.50;2.47;;;18.30;99.90;;;;;;5036472;28;20464;-69
2023/09/19 02:54:12;;;;;;;2.93;2.27;;;18.30;99.90;;;;;;5050619;28;20944;-68
2023/09/19 02:56:39;;;;;;;2.63;2.20;;;18.20;99.90;;;;;;5053290;28;20454;-68
2023/09/19 02:59:09;;;;;;;3.00;2.37;;;18.20;99.90;;;;;;5052748;28;20467;-68
2023/09/19 03:01:38;;;;;;;4.37;1.47;;;18.30;99.90;;;;;;5040538;28;20475;-68
2023/09/19 03:04:11;;;;;;;4.03;2.23;;;18.20;99.90;;;;;;5033141;28;20475;-68
2023/09/19 03:06:38;;;;;;;3.30;1.87;;;18.20;99.90;;;;;;5032369;28;20471;-68
2023/09/19 03:09:13;;;;;;;2.57;1.57;;;18.20;99.90;;;;;;5032669;28;20437;-68
2023/09/19 03:11:42;;;;;;;2.57;2.10;;;18.20;99.90;;;;;;5032374;28;20831;-67
2023/09/19 03:14:10;;;;;;;5.73;1.90;;;18.20;99.90;;;;;;5032808;28;20451;-67
2023/09/19 03:16:38;;;;;;;2.10;1.60;;;18.30;99.90;;;;;;5032502;28;20480;-67
2023/09/19 03:19:05;;;;;;;3.00;2.13;;;18.30;99.90;;;;;;5032060;28;20479;-67
2023/09/19 03:21:32;;;;;;;3.97;2.20;;;18.30;99.90;;;;;;5032745;28;20863;-68
2023/09/19 03:24:00;;;;;;;4.20;1.97;;;18.30;99.90;;;;;;5033188;28;20460;-68
2023/09/19 03:26:28;;;;;;;3.07;2.07;;;18.30;99.90;;;;;;5032751;28;20518;-69
2023/09/19 03:28:59;;;;;;;2.60;1.90;;;18.30;99.90;;;;;;5046747;28;20463;-68
2023/09/19 03:31:27;;;;;;;3.10;1.70;;;18.30;99.90;;;;;;5035646;28;20447;-68
2023/09/19 03:33:54;;;;;;;2.83;1.57;;;18.30;99.90;;;;;;5051893;28;20512;-69
2023/09/19 03:36:21;;;;;;;1.90;1.70;;;18.40;99.90;;;;;;5051924;28;20455;-68
2023/09/19 03:38:48;;;;;;;6.03;2.13;;;18.40;99.90;;;;;;5052363;28;20465;-69
2023/09/19 03:41:17;;;;;;;3.07;1.93;;;18.40;99.90;;;;;;5051642;28;20440;-69
2023/09/19 03:43:44;;;;;;;2.30;1.77;;;18.30;99.90;;;;;;5052416;28;20481;-69
2023/09/19 03:46:14;;;;;;;2.23;1.67;;;18.30;99.90;;;;;;5051941;28;20963;-68
2023/09/19 03:48:42;;;;;;;5.00;2.13;;;18.30;99.90;;;;;;5052069;28;20419;-69
2023/09/19 03:51:09;;;;;;;4.83;2.63;;;18.30;99.90;;;;;;5034342;28;20447;-70
2023/09/19 03:53:36;;;;;;;3.30;2.03;;;18.30;99.90;;;;;;5051555;28;21043;-69
2023/09/19 03:56:03;;;;;;;2.17;1.83;;;18.20;99.90;;;;;;5051680;28;20490;-68
2023/09/19 03:58:30;;;;;;;3.17;1.93;;;18.20;99.90;;;;;;5052598;28;20497;-69
2023/09/19 04:01:00;;;;;;;2.43;1.90;;;18.20;99.90;;;;;;5051907;28;20506;-69
2023/09/19 04:03:35;;;;;;;2.13;1.90;;;18.20;99.90;;;;;;5033056;28;20488;-67
2023/09/19 04:06:02;;;;;;;2.50;1.80;;;17.90;99.90;;;;;;5032060;28;20837;-68
2023/09/19 04:08:29;;;;;;;1.97;1.60;;;18.10;99.90;;;;;;5044946;28;20454;-70
2023/09/19 04:10:56;;;;;;;2.27;1.83;;;18.10;99.90;;;;;;5053198;28;20470;-68
2023/09/19 04:13:24;;;;;;;5.63;1.80;;;18.10;99.90;;;;;;5053772;28;20478;-68
2023/09/19 04:15:59;;;;;;;5.10;1.83;;;17.80;99.90;;;;;;5054970;28;20439;-68
2023/09/19 04:18:26;;;;;;;2.13;1.90;;;18.00;99.90;;;;;;5052309;28;20427;-68
2023/09/19 04:20:55;;;;;;;3.30;2.00;;;18.10;99.90;;;;;;5052371;28;21043;-69
2023/09/19 04:23:25;;;;;;;4.10;2.17;;;18.10;99.90;;;;;;5052499;28;20438;-67
2023/09/19 04:25:52;;;;;;;3.90;1.80;;;18.00;99.90;;;;;;5056285;28;20478;-67
2023/09/19 04:28:19;;;;;;;2.70;1.80;;;18.00;99.90;;;;;;5037907;28;20462;-68
2023/09/19 04:30:46;;;;;;;1.90;1.50;;;18.00;99.90;;;;;;5056192;28;20457;-70
2023/09/19 04:33:14;;;;;;;4.00;2.80;;;18.00;99.90;;;;;;5055977;28;20566;-68
2023/09/19 04:35:42;;;;;;;5.27;2.20;;;18.00;99.90;;;;;;5055638;28;21062;-68
2023/09/19 04:38:11;;;;;;;3.20;1.97;;;18.00;99.90;;;;;;5055531;28;20471;-69
2023/09/19 04:40:39;;;;;;;2.90;1.40;;;18.00;99.90;;;;;;5055797;28;20884;-69
2023/09/19 04:43:08;;;;;;;3.90;2.00;;;18.10;99.90;;;;;;5055565;28;20505;-69
2023/09/19 04:45:35;;;;;;;2.43;1.47;;;18.00;99.90;;;;;;5055339;28;20470;-68
2023/09/19 04:48:03;;;;;;;2.03;1.60;;;18.00;99.90;;;;;;5054722;28;20566;-68
2023/09/19 04:50:30;;;;;;;2.70;1.60;;;18.00;99.90;;;;;;5055395;28;20428;-69
2023/09/19 04:52:57;;;;;;;1.70;1.60;;;18.00;99.90;;;;;;5054865;28;20460;-68
2023/09/19 04:55:27;;;;;;;1.73;1.57;;;18.00;99.90;;;;;;5055532;28;20543;-69
2023/09/19 04:57:55;;;;;;;2.07;1.83;;;18.00;99.90;;;;;;5037460;28;20964;-69
2023/09/19 05:00:24;;;;;;;2.37;1.97;;;18.00;99.90;;;;;;5054949;28;20855;-69
2023/09/19 05:02:52;;;;;;;5.53;1.67;;;18.00;99.90;;;;;;5055043;28;20490;-69
2023/09/19 05:05:22;;;;;;;4.80;1.97;;;18.00;99.90;;;;;;5045883;28;20468;-68
2023/09/19 05:07:51;;;;;;;2.50;1.70;;;17.90;99.90;;;;;;5035162;28;20844;-68
2023/09/19 05:10:19;;;;;;;2.80;1.80;;;17.90;99.90;;;;;;5043000;28;20893;-69
2023/09/19 05:12:51;;;;;;;2.10;1.77;;;17.90;99.90;;;;;;5055435;28;20554;-68
2023/09/19 05:15:21;;;;;;;4.90;1.50;;;17.90;99.90;;;;;;5054696;28;20452;-68
2023/09/19 05:17:51;;;;;;;4.50;1.97;;;17.90;99.90;;;;;;5055209;28;20482;-69
2023/09/19 05:20:24;;;;;;;2.70;1.50;;;17.90;99.90;;;;;;5055202;28;20475;-68
2023/09/19 05:22:59;;;;;;;2.80;1.70;;;17.90;99.90;;;;;;5037386;28;20529;-69
2023/09/19 05:25:29;;;;;;;4.07;1.77;;;17.80;99.90;;;;;;5054040;28;20466;-67
2023/09/19 05:27:58;;;;;;;1.83;1.60;;;17.90;99.90;;;;;;5054620;28;20549;-69
2023/09/19 05:30:27;;;;;;;4.70;1.60;;;17.80;99.90;;;;;;5062696;28;20474;-69
2023/09/19 05:32:55;;;;;;;2.53;1.80;;;17.80;99.90;;;;;;5054599;28;20463;-69
2023/09/19 05:35:22;;;;;;;3.10;2.00;;;17.90;99.90;;;;;;5054681;28;20434;-70
2023/09/19 05:37:51;;;;;;;2.60;1.90;;;17.80;99.90;;;;;;5021769;28;20463;-69
2023/09/19 05:40:18;;;;;;;2.63;2.13;;;17.80;99.90;;;;;;5053884;28;20467;-69
2023/09/19 05:42:45;;;;;;;3.07;2.00;;;17.80;99.90;;;;;;5054097;28;20542;-68
2023/09/19 05:45:18;;;;;;;2.80;2.13;;;17.80;99.90;;;;;;5056048;28;20447;-68
2023/09/19 05:47:46;;;;;;;3.83;2.20;;;17.80;99.90;;;;;;5051713;28;20505;-70
2023/09/19 05:50:16;;;;;;;2.20;1.90;;;17.70;99.90;;;;;;5043066;28;20484;-69
2023/09/19 05:52:44;;;;;;;3.63;1.83;;;17.70;99.90;;;;;;5034508;28;20475;-68
2023/09/19 05:55:11;;;;;;;10.07;4.50;;;17.70;99.90;;;;;;5050020;28;20471;-68
2023/09/19 05:57:39;;;;;;;4.60;2.70;;;17.70;99.90;;;;;;5045394;28;20479;-69
2023/09/19 06:00:11;;;;;;;2.97;2.40;;;17.70;99.90;;;;;;5054635;28;20502;-68
2023/09/19 06:02:40;;;;;;;3.63;2.80;;;17.70;99.90;;;;;;5054107;28;20517;-69
2023/09/19 06:05:11;;;;;;;4.20;2.13;;;17.70;99.90;;;;;;5051909;28;20487;-68
2023/09/19 06:07:38;;;;;;;3.13;2.43;;;17.70;99.90;;;;;;5052559;28;20462;-68
2023/09/19 06:10:07;;;;;;;4.50;1.63;;;17.70;99.90;;;;;;5053365;28;20459;-72
2023/09/19 06:12:37;;;;;;;3.13;1.70;;;17.70;99.90;;;;;;5044813;28;20466;-71
2023/09/19 06:15:08;;;;;;;3.20;1.53;;;17.70;99.90;;;;;;5033301;28;20903;-70
2023/09/19 06:17:37;;;;;;;2.67;1.60;;;17.70;99.90;;;;;;5040581;28;20463;-71
2023/09/19 06:20:12;;;;;;;5.70;2.00;;;17.80;99.90;;;;;;5038246;28;20475;-72
2023/09/19 06:22:48;;;;;;;6.20;3.07;;;17.80;99.90;;;;;;5047600;28;20459;-71
2023/09/19 06:25:19;;;;;;;4.63;1.60;;;17.80;99.90;;;;;;5055933;28;20424;-73
2023/09/19 06:28:05;;;;;;;3.13;2.37;;;17.80;99.90;;;;;;5049575;28;20492;-72
2023/09/19 06:30:40;;;;;;;3.93;3.10;;;17.80;99.90;;;;;;5059191;28;20443;-76
2023/09/19 06:33:11;;;;;;;2.83;2.27;;;17.90;99.90;;;;;;5058640;28;20455;-70
2023/09/19 06:35:44;;;;;;;4.70;2.37;;;18.10;99.90;;;;;;5037622;28;20471;-70
2023/09/19 06:38:13;;;;;;;4.13;2.37;;;18.10;99.90;;;;;;5035147;28;20463;-71
2023/09/19 06:40:42;;;;;;;3.63;2.10;;;18.20;99.90;;;;;;5034380;28;20522;-71
2023/09/19 06:43:12;;;;;;;2.37;1.90;;;18.10;99.90;;;;;;5017377;28;20433;-71
2023/09/19 06:45:54;;;;;;;5.53;1.93;;;18.10;99.90;;;;;;5027353;28;20472;-71
2023/09/19 06:48:21;;;;;;;7.70;2.20;;;18.10;99.90;;;;;;5054472;28;20447;-70
2023/09/19 06:50:54;;;;;;;3.03;2.43;;;18.10;99.90;;;;;;5054867;28;20427;-71
2023/09/19 06:53:46;;;;;;;3.07;2.23;;;18.20;99.90;;;;;;5055948;28;20901;-71
2023/09/19 06:56:13;;;;;;;3.20;1.93;;;18.20;99.90;;;;;;5056062;28;20463;-72
2023/09/19 06:59:02;;;;;;;3.17;2.07;;;18.20;99.90;;;;;;5055065;28;20435;-70
2023/09/19 07:01:31;;;;;;;2.10;1.90;;;18.20;99.90;;;;;;5054334;28;20479;-71
2023/09/19 07:04:01;;;;;;;3.93;1.90;;;18.30;99.90;;;;;;5037582;28;20474;-71
2023/09/19 07:06:30;;;;;;;2.70;1.93;;;18.30;99.90;;;;;;5057050;28;20467;-71
2023/09/19 07:08:57;;;;;;;2.40;1.80;;;18.40;99.90;;;;;;5056727;28;20424;-71
2023/09/19 07:11:31;;;;;;;17.93;3.03;;;18.50;99.90;;;;;;5056577;28;20432;-72
2023/09/19 07:14:01;;;;;;;4.50;1.90;;;18.70;99.90;;;;;;5056692;28;20466;-71
2023/09/19 07:16:29;;;;;;;2.47;1.83;;;18.90;99.90;;;;;;5057116;28;20517;-72
2023/09/19 07:18:57;;;;;;;5.33;2.10;;;19.00;99.90;;;;;;5054424;28;20865;-70
2023/09/19 07:21:24;;;;;;;2.43;1.90;;;19.20;99.90;;;;;;5054049;28;20978;-69
2023/09/19 07:23:53;;;;;;;2.93;2.07;;;19.30;99.90;;;;;;5037440;28;20485;-70
2023/09/19 07:26:20;;;;;;;2.97;2.30;;;19.40;99.90;;;;;;5073467;28;20455;-69
2023/09/19 07:28:48;;;;;;;6.50;2.43;;;19.40;99.90;;;;;;5073799;28;20423;-70
2023/09/19 07:31:17;;;;;;;5.70;2.53;;;19.50;99.90;;;;;;5059390;28;20463;-70
2023/09/19 07:33:44;;;;;;;4.13;2.30;;;19.60;99.90;;;;;;5053353;28;20450;-70
2023/09/19 07:36:13;;;;;;;1.70;1.60;;;19.60;99.90;;;;;;5035779;28;20443;-70
2023/09/19 07:38:41;;;;;;;5.90;2.10;;;19.60;99.90;;;;;;5053994;28;20467;-69
2023/09/19 07:41:10;;;;;;;2.20;2.00;;;19.60;99.90;;;;;;5053848;28;20947;-70
2023/09/19 07:43:40;;;;;;;4.20;3.00;;;19.60;99.90;;;;;;5036217;28;20855;-70
2023/09/19 07:46:30;;;;;;;2.70;2.33;;;19.40;99.90;;;;;;5053927;28;20596;-69
2023/09/19 07:49:00;;;;;;;5.60;2.90;;;19.50;99.90;;;;;;5054595;28;20755;-70
2023/09/19 07:51:27;;;;;;;4.63;2.30;;;19.40;99.90;;;;;;5054707;28;20439;-72
2023/09/19 07:54:06;;;;;;;3.00;2.80;;;19.30;99.90;;;;;;5054580;28;20454;-70
2023/09/19 07:56:35;;;;;;;3.47;3.17;;;19.30;99.90;;;;;;5055246;28;20471;-69
2023/09/19 07:59:03;;;;;;;6.40;3.17;;;19.30;99.90;;;;;;5043521;28;20461;-71
2023/09/19 08:01:40;;;;;;;6.03;2.80;;;19.40;99.90;;;;;;5060806;28;20459;-70
2023/09/19 08:04:08;;;;;;;3.70;2.40;;;19.40;99.90;;;;;;5061623;28;20467;-70
2023/09/19 08:06:38;;;;;;;5.70;2.33;;;19.50;99.90;;;;;;5059596;28;20474;-69
2023/09/19 08:09:12;;;;;;;5.57;2.70;;;19.50;99.90;;;;;;5058280;28;20486;-69
2023/09/19 08:11:45;;;;;;;3.40;2.53;;;19.60;99.90;;;;;;5058343;28;20467;-69
2023/09/19 08:14:14;;;;;;;4.63;3.07;;;19.50;99.90;;;;;;5058062;28;20819;-68
2023/09/19 08:16:42;;;;;;;7.17;2.13;;;19.60;99.90;;;;;;5059172;28;20466;-69
2023/09/19 08:19:16;;;;;;;4.33;2.50;;;20.20;99.90;;;;;;5056951;28;20481;-69
2023/09/19 08:21:45;;;;;;;3.00;2.47;;;21.00;99.90;;;;;;5056827;28;20483;-68
2023/09/19 08:24:14;;;;;;;6.07;2.33;;;21.20;99.90;;;;;;5036665;28;20474;-69
2023/09/19 08:26:46;;;;;;;4.80;2.20;;;21.30;99.90;;;;;;5035908;28;20555;-68
2023/09/19 08:29:13;;;;;;;3.97;2.40;;;21.00;99.90;;;;;;5055861;28;20463;-68
2023/09/19 08:31:43;;;;;;;2.73;2.00;;;20.70;99.90;;;;;;5056624;28;20432;-70
2023/09/19 08:34:10;;;;;;;7.00;2.80;;;20.60;99.90;;;;;;5037355;28;20444;-69
2023/09/19 08:36:43;;;;;;;3.60;1.90;;;20.40;99.90;;;;;;5037128;28;20495;-68
2023/09/19 08:39:13;;;;;;;2.83;2.63;;;20.60;99.90;;;;;;5037091;28;20478;-68
2023/09/19 08:41:40;;;;;;;5.33;2.60;;;20.50;99.90;;;;;;5036416;28;20460;-68
2023/09/19 08:44:10;;;;;;;3.50;2.73;;;21.00;99.90;;;;;;5036879;28;20473;-68
2023/09/19 08:46:41;;;;;;;6.50;2.87;;;22.00;99.90;;;;;;5036034;28;20598;-70
2023/09/19 08:49:24;;;;;;;2.97;2.20;;;22.50;99.90;;;;;;5050449;28;20451;-69
2023/09/19 08:51:58;;;;;;;6.70;2.93;;;22.70;99.90;;;;;;5059512;28;20447;-69
2023/09/19 08:54:30;;;;;;;2.70;1.93;;;23.00;99.90;;;;;;5037889;28;20478;-70
2023/09/19 08:57:02;;;;;;;4.83;2.90;;;23.50;99.90;;;;;;5057123;28;20470;-70
2023/09/19 08:59:35;;;;;;;2.67;2.20;;;23.60;99.90;;;;;;5059120;28;20485;-71
2023/09/19 09:02:04;;;;;;;3.40;2.47;;;23.90;99.90;;;;;;5058916;28;20471;-71
2023/09/19 09:04:31;;;;;;;9.13;3.37;;;23.90;99.90;;;;;;5058054;28;20947;-68
2023/09/19 09:07:00;;;;;;;4.80;2.40;;;24.00;99.90;;;;;;5039819;28;20626;-68
2023/09/19 09:09:35;;;;;;;5.00;2.53;;;23.70;99.90;;;;;;5056311;28;20466;-69
2023/09/19 09:12:04;;;;;;;2.20;1.90;;;23.10;99.90;;;;;;5058222;28;20470;-68
2023/09/19 09:14:34;;;;;;;2.50;2.30;;;22.80;99.90;;;;;;5059861;28;20424;-68
2023/09/19 09:17:03;;;;;;;5.50;2.33;;;23.10;99.90;;;;;;5056893;28;20796;-68
2023/09/19 09:19:32;;;;;;;3.43;2.20;;;23.50;99.90;;;;;;5056727;28;20474;-69
2023/09/19 09:22:10;;;;;;;4.90;2.50;;;23.60;99.90;;;;;;5056730;28;20467;-69
2023/09/19 09:24:53;;;;;;;4.20;3.00;;;23.30;99.90;;;;;;5043310;28;20424;-69
2023/09/19 09:27:23;;;;;;;2.90;2.60;;;22.80;99.90;;;;;;5059020;28;20546;-68
2023/09/19 09:29:54;;;;;;;6.37;3.57;;;22.40;99.90;;;;;;5047211;28;20452;-69
2023/09/19 09:32:25;;;;;;;2.90;2.33;;;22.10;99.90;;;;;;5037075;28;21076;-68
2023/09/19 09:34:53;;;;;;;4.97;2.53;;;22.00;99.90;;;;;;5025503;28;20466;-69
2023/09/19 09:37:22;;;;;;;2.80;2.00;;;22.50;99.90;;;;;;5055664;28;20858;-68
2023/09/19 09:39:56;;;;;;;3.57;2.33;;;22.70;99.90;;;;;;5055510;28;20435;-67
2023/09/19 09:42:38;;;;;;;2.73;2.53;;;23.50;99.90;;;;;;5037468;28;20490;-68
2023/09/19 09:45:19;;;;;;;5.40;2.53;;;24.20;99.90;;;;;;5055435;28;20466;-68
2023/09/19 09:47:54;;;;;;;3.60;2.40;;;24.00;99.90;;;;;;5035106;28;20463;-68
2023/09/19 09:50:39;;;;;;;12.37;3.40;;;23.40;99.90;;;;;;5036396;28;20863;-67
2023/09/19 09:53:25;;;;;;;3.87;2.60;;;22.70;99.90;;;;;;5035424;28;20471;-69
2023/09/19 09:56:12;;;;;;;12.00;2.80;;;23.00;99.90;;;;;;5034508;28;20517;-69
2023/09/19 09:58:54;;;;;;;5.73;2.97;;;22.80;99.90;;;;;;5034068;28;20948;-71
2023/09/19 10:01:26;;;;;;;4.50;2.30;;;23.50;99.90;;;;;;5034317;28;20522;-68
2023/09/19 10:04:00;;;;;;;8.83;2.40;;;23.70;97.50;;;;;;5034239;28;20480;-69
2023/09/19 10:06:47;;;;;;;3.80;2.37;;;23.60;97.20;;;;;;5016883;28;20559;-69
2023/09/19 10:09:27;;;;;;;7.20;2.70;;;23.40;97.30;;;;;;5034989;28;20427;-69
2023/09/19 10:12:04;;;;;;;3.80;2.50;;;23.80;96.00;;;;;;5048019;28;20447;-70
2023/09/19 10:14:35;;;;;;;5.00;2.40;;;24.10;94.30;;;;;;5055073;28;20431;-69
2023/09/19 10:17:06;;;;;;;4.17;2.80;;;24.50;94.00;;;;;;5054112;28;21189;-68
2023/09/19 10:19:46;;;;;;;3.43;2.93;;;25.50;99.90;;;;;;5054705;28;20428;-68
2023/09/19 10:22:16;;;;;;;4.00;1.97;;;25.20;92.10;;;;;;5053572;28;20566;-69
2023/09/19 10:24:46;;;;;;;6.63;2.83;;;25.40;91.20;;;;;;5041817;28;20452;-69
2023/09/19 10:27:19;;;;;;;4.37;2.73;;;25.80;91.10;;;;;;5034387;28;20475;-68
2023/09/19 10:29:49;;;;;;;4.40;2.23;;;26.30;89.20;;;;;;5036165;28;20433;-68
2023/09/19 10:32:21;;;;;;;9.80;2.40;;;26.10;86.60;;;;;;5047658;28;20454;-67
2023/09/19 10:34:49;;;;;;;5.17;2.80;;;25.40;82.30;;;;;;5053778;28;20428;-69
2023/09/19 10:37:20;;;;;;;5.33;2.60;;;25.40;82.10;;;;;;5048093;28;20476;-70
2023/09/19 10:39:49;;;;;;;4.80;2.60;;;25.60;82.60;;;;;;5000033;28;20465;-69
2023/09/19 10:42:28;;;;;;;5.70;2.97;;;25.80;81.70;;;;;;5152432;27;20895;-68
2023/09/19 10:45:00;;;;;;;4.50;2.17;;;26.10;81.20;;;;;;5131289;27;21025;-69
2023/09/19 10:47:27;;;;;;;4.60;2.10;;;26.20;79.70;;;;;;5117488;28;20530;-68
2023/09/19 10:49:55;;;;;;;4.60;2.40;;;26.20;79.50;;;;;;5110634;28;20474;-69
2023/09/19 10:52:24;;;;;;;7.97;2.90;;;26.00;80.20;;;;;;5110324;28;20509;-68
2023/09/19 10:54:57;;;;;;;8.03;3.00;;;25.60;79.00;;;;;;5110379;28;20517;-69
2023/09/19 10:57:28;;;;;;;5.67;2.33;;;25.00;76.20;;;;;;5110839;28;20502;-69
2023/09/19 11:00:21;;;;;;;4.30;3.00;;;24.30;75.90;;;;;;5110919;28;20459;-68
2023/09/19 11:03:23;;;;;;;5.03;2.63;;;23.60;77.80;;;;;;5111550;28;20524;-69
2023/09/19 11:06:09;;;;;;;8.17;3.20;;;23.20;80.20;;;;;;5107208;28;20824;-69
2023/09/19 11:09:21;;;;;;;3.60;2.20;;;23.00;81.30;;;;;;5112152;28;20476;-69
2023/09/19 11:12:00;;;;;;;4.33;2.30;;;23.00;82.40;;;;;;5091294;28;20442;-67
2023/09/19 11:14:39;;;;;;;4.50;2.50;;;22.90;81.50;;;;;;5091244;28;20492;-69
2023/09/19 11:17:37;;;;;;;3.80;2.20;;;22.80;82.40;;;;;;5101482;28;20549;-68
2023/09/19 11:20:41;;;;;;;4.23;2.23;;;22.80;83.30;;;;;;5111184;28;20613;-69
2023/09/19 11:23:28;;;;;;;3.77;2.50;;;22.80;82.30;;;;;;5089912;28;20464;-69
2023/09/19 11:25:59;;;;;;;4.20;2.00;;;22.40;91.90;;;;;;5130296;28;20441;-67
2023/09/19 11:28:35;;;;;;;3.20;2.00;;;22.50;84.30;;;;;;5134367;27;20492;-66
2023/09/19 11:31:59;;;;;;;4.60;2.30;;;21.90;92.20;;;;;;5134667;27;20413;-67
2023/09/19 11:34:51;;;;;;;4.27;2.60;;;22.00;96.90;;;;;;5134440;27;20452;-66
2023/09/19 11:38:02;;;;;;;4.87;2.37;;;21.80;85.80;;;;;;5119800;27;20495;-67
2023/09/19 11:40:32;;;;;;;3.37;2.23;;;21.80;85.70;;;;;;5114274;28;20437;-66
2023/09/19 11:43:00;;;;;;;3.70;2.30;;;21.70;86.50;;;;;;5118098;28;20439;-66
2023/09/19 11:46:05;;;;;;;3.27;2.10;;;21.60;87.00;;;;;;5150957;27;20425;-68
2023/09/19 11:48:37;;;;;;;4.30;2.83;;;21.50;87.60;;;;;;5133829;28;20437;-65
2023/09/19 11:51:19;;;;;;;4.83;2.47;;;21.70;88.90;;;;;;5134522;28;20461;-69
2023/09/19 11:53:47;;;;;;;5.40;2.90;;;21.80;88.90;;;;;;5110556;28;20418;-68
2023/09/19 11:56:18;;;;;;;3.33;2.20;;;22.00;87.70;;;;;;5102531;28;20461;-68
2023/09/19 11:58:45;;;;;;;2.30;1.77;;;22.10;84.80;;;;;;5096100;28;20619;-69
2023/09/19 12:01:21;;;;;;;5.80;2.50;;;22.10;84.10;;;;;;5095788;28;20996;-68
2023/09/19 12:03:53;;;;;;;7.27;2.27;;;22.10;84.40;;;;;;5095655;28;20836;-67
2023/09/19 12:06:24;;;;;;;3.17;2.87;;;22.10;84.00;;;;;;5095504;28;20882;-69
2023/09/19 12:08:54;;;;;;;3.73;2.00;;;22.20;84.60;;;;;;5095882;28;20425;-70
2023/09/19 12:11:24;;;;;;;2.53;1.90;;;22.20;82.70;;;;;;5095534;28;20441;-69
2023/09/19 12:13:53;;;;;;;3.90;2.00;;;22.20;82.30;;;;;;5094872;28;20468;-69
2023/09/19 12:16:22;;;;;;;3.70;2.13;;;22.20;82.10;;;;;;5095467;28;20477;-67
2023/09/19 12:18:51;;;;;;;9.17;1.90;;;22.20;82.00;;;;;;5095641;28;20487;-68
2023/09/19 12:21:34;;;;;;;4.40;1.67;;;22.10;81.50;;;;;;5093324;28;20556;-67
2023/09/19 12:24:19;;;;;;;4.57;1.93;;;22.10;82.70;;;;;;5097177;28;20430;-69
2023/09/19 12:26:52;;;;;;;4.33;1.70;;;22.10;83.10;;;;;;5094415;28;20463;-68
2023/09/19 12:29:24;;;;;;;3.67;2.40;;;22.00;82.30;;;;;;5095111;28;20572;-69
2023/09/19 12:31:57;;;;;;;3.60;2.00;;;21.90;81.90;;;;;;5095155;28;20849;-69
2023/09/19 12:34:27;;;;;;;3.23;1.67;;;22.00;81.90;;;;;;5094202;28;20477;-68
2023/09/19 12:37:20;;;;;;;5.93;1.80;;;21.90;81.70;;;;;;5094735;28;20474;-70
2023/09/19 12:39:53;;;;;;;5.70;1.83;;;22.00;81.30;;;;;;5075008;28;20834;-68
2023/09/19 12:42:28;;;;;;;5.30;2.10;;;22.00;81.10;;;;;;5077043;28;20470;-69
2023/09/19 12:44:59;;;;;;;13.80;1.80;;;22.20;80.90;;;;;;5094619;28;20457;-70
2023/09/19 12:47:26;;;;;;;4.97;1.87;;;22.20;80.40;;;;;;5093831;28;20454;-68
2023/09/19 12:50:29;;;;;;;2.57;1.57;;;22.20;79.80;;;;;;5094809;28;20450;-68
2023/09/19 12:53:00;;;;;;;4.27;2.20;;;22.20;80.50;;;;;;5095393;28;20426;-67
2023/09/19 12:55:32;;;;;;;2.87;1.90;;;22.20;80.50;;;;;;5094886;28;20513;-69
2023/09/19 12:58:10;;;;;;;2.30;1.67;;;22.30;80.30;;;;;;5093856;28;20461;-68
2023/09/19 13:00:39;;;;;;;5.50;2.17;;;22.20;79.60;;;;;;5095027;28;20446;-67
2023/09/19 13:03:24;;;;;;;3.87;1.93;;;22.10;79.80;;;;;;5095142;28;20433;-67
2023/09/19 13:05:55;;;;;;;2.60;2.10;;;22.00;81.50;;;;;;5074669;28;20434;-70
2023/09/19 13:08:29;;;;;;;2.90;1.80;;;22.10;81.60;;;;;;5074916;28;20426;-68
2023/09/19 13:11:12;;;;;;;6.53;2.17;;;22.20;81.60;;;;;;5090174;28;20477;-68